Weather at Anik Airstrip

Public forecast

Using degrees Celsius for public forecast. Weather courtesy of forecast.io.

Closest aviation weather report (METAR) to Anik Airstrip

Closest report is Supadio Airport, 46.0 nm (85.3 km) SSW.

2024/05/27 21:00 (retrieved 27 minutes ago)

WIOO 272100Z AUTO VRB02KT 9999 -RA SCT055 SCT090 BKN160 25/25 Q1008

Closest aviation forecast (TAF) to Anik Airstrip

Closest forecast is Kuching International Airport, 67.8 nm (125.6 km) NNE.

2024/05/27 18:09 (retrieved 3 hours ago)

TAF WBGG 271700Z 2718/2818 26005KT 9999 FEW020 TEMPO 2722/2801 6000 -RA FEW003 TEMPO 2807/2810 5000 TSRA FEW015CB